Time;durP1;ratioP1;P1;durP2;ratioP2;P2;SDS_P1;SDS_P2;PMS_P1;PMS_P2;Temp;Humidity;BMP_temperature;BMP_pressure;BME280_temperature;BME280_humidity;BME280_pressure;Samples;Min_cycle;Max_cycle;Signal;HPM_P1;HPM_P2
2023/06/14 00:00:14;;;;;;;14.10;10.40;;;;;;;9.62;77.72;98711.02;226262;1278;22538;-76
2023/06/14 00:05:18;;;;;;;11.70;7.80;;;;;;;9.59;77.74;98713.00;226193;1276;22569;-76
2023/06/14 00:10:20;;;;;;;14.60;8.40;;;;;;;9.59;78.26;98713.52;226192;1278;25265;-76
2023/06/14 00:15:23;;;;;;;13.10;10.10;;;;;;;9.55;78.29;98713.36;226228;1278;22675;-76
2023/06/14 00:20:26;;;;;;;12.70;10.20;;;;;;;9.51;78.27;98710.86;226250;1278;22550;-75
2023/06/14 00:25:30;;;;;;;13.50;10.00;;;;;;;9.49;78.71;98709.59;226191;1276;22532;-76
2023/06/14 00:30:33;;;;;;;15.20;11.10;;;;;;;9.43;78.45;98713.85;226225;1276;22571;-75
2023/06/14 00:35:47;;;;;;;16.00;10.90;;;;;;;9.35;78.96;98710.23;226018;1277;22567;-76
2023/06/14 00:40:50;;;;;;;14.70;10.70;;;;;;;9.30;79.08;98707.01;226240;1278;22531;-74
2023/06/14 00:45:53;;;;;;;16.20;11.10;;;;;;;9.25;79.25;98706.36;225907;1278;22544;-75
2023/06/14 00:51:03;;;;;;;16.20;11.70;;;;;;;9.20;79.52;98705.81;226226;1276;22539;-75
2023/06/14 00:56:07;;;;;;;17.50;12.90;;;;;;;9.17;79.75;98703.02;226289;1276;22583;-75
2023/06/14 01:01:14;;;;;;;17.80;13.20;;;;;;;9.15;79.93;98702.95;226183;1278;24295;-75
2023/06/14 01:06:31;;;;;;;19.90;13.50;;;;;;;9.12;80.37;98703.34;225966;1278;22500;-75
2023/06/14 01:11:48;;;;;;;18.20;13.90;;;;;;;9.07;80.14;98700.18;226235;1278;22540;-75
2023/06/14 01:17:03;;;;;;;15.90;11.90;;;;;;;9.02;80.24;98697.81;226249;1278;22561;-75
2023/06/14 01:22:08;;;;;;;19.30;14.30;;;;;;;8.97;80.42;98694.16;226272;1278;24395;-76
2023/06/14 01:27:13;;;;;;;17.90;12.20;;;;;;;8.92;80.51;98691.55;226083;1277;22537;-75
2023/06/14 01:32:17;;;;;;;18.60;13.30;;;;;;;8.88;80.84;98688.20;226250;1278;22549;-76
2023/06/14 01:37:21;;;;;;;17.60;13.90;;;;;;;8.84;81.07;98691.16;226208;1278;22548;-76
2023/06/14 01:42:27;;;;;;;17.60;14.10;;;;;;;8.79;80.96;98696.27;226005;1277;22535;-76
2023/06/14 01:47:31;;;;;;;18.40;14.20;;;;;;;8.75;81.37;98698.36;226151;1278;22547;-76
2023/06/14 01:52:39;;;;;;;21.10;15.50;;;;;;;8.72;81.60;98701.02;226214;1278;24308;-76
2023/06/14 01:57:43;;;;;;;18.50;15.10;;;;;;;8.69;81.56;98698.55;226299;1278;22547;-76
2023/06/14 02:08:31;;;;;;;20.80;15.70;;;;;;;8.60;82.01;98688.80;226235;1278;22533;-74
2023/06/14 02:13:35;;;;;;;24.80;17.00;;;;;;;8.57;82.05;98686.73;226348;1278;23701;-75
2023/06/14 02:18:41;;;;;;;21.20;15.30;;;;;;;8.56;82.17;98687.09;226194;1278;22539;-76
2023/06/14 02:23:43;;;;;;;23.40;16.80;;;;;;;8.52;82.23;98679.91;226217;1278;22552;-77
2023/06/14 02:28:49;;;;;;;22.30;16.60;;;;;;;8.48;81.91;98685.95;226185;1278;22527;-76
2023/06/14 02:33:57;;;;;;;23.10;15.80;;;;;;;8.48;82.43;98690.77;226246;1278;25306;-75
2023/06/14 02:39:20;;;;;;;23.40;15.20;;;;;;;8.49;82.08;98690.27;225968;1280;22570;-75
2023/06/14 02:44:27;;;;;;;21.10;15.50;;;;;;;8.51;82.21;98690.91;225908;1280;22524;-76
2023/06/14 02:50:15;;;;;;;18.90;14.20;;;;;;;8.54;82.59;98692.73;225953;1280;22576;-76
2023/06/14 02:55:41;;;;;;;15.50;12.70;;;;;;;8.59;82.41;98698.88;226047;1280;22480;-75
2023/06/14 03:00:44;;;;;;;25.10;14.60;;;;;;;8.65;82.31;98702.55;225997;1278;22560;-76
2023/06/14 03:06:07;;;;;;;17.40;11.70;;;;;;;8.73;82.83;98692.13;226281;1278;22556;-75
2023/06/14 03:11:23;;;;;;;17.20;12.70;;;;;;;8.82;82.89;98693.24;226177;1276;22541;-76
2023/06/14 03:16:29;;;;;;;17.40;12.40;;;;;;;8.92;82.60;98686.73;226240;1278;24269;-76
2023/06/14 03:21:36;;;;;;;20.50;13.70;;;;;;;9.02;82.53;98688.88;226204;1274;22542;-76
2023/06/14 03:26:42;;;;;;;13.50;10.70;;;;;;;9.14;82.69;98685.30;226210;1276;25294;-76
2023/06/14 03:32:15;;;;;;;18.40;13.00;;;;;;;9.27;82.73;98689.57;226070;1274;22537;-75
2023/06/14 03:37:28;;;;;;;15.40;12.50;;;;;;;9.44;82.53;98689.59;226266;1278;22559;-76
2023/06/14 03:42:31;;;;;;;14.70;11.50;;;;;;;9.58;82.65;98692.30;226200;1278;22583;-76
2023/06/14 03:47:35;;;;;;;13.60;11.10;;;;;;;9.72;82.58;98697.34;226158;1273;22550;-76
2023/06/14 03:52:41;;;;;;;14.10;10.30;;;;;;;9.89;82.54;98703.18;226204;1277;22556;-76
2023/06/14 03:57:45;;;;;;;16.60;11.00;;;;;;;10.06;82.47;98694.47;226171;1278;22561;-75
2023/06/14 04:02:56;;;;;;;16.50;11.50;;;;;;;10.25;82.53;98695.08;226062;1277;22554;-75
2023/06/14 04:08:00;;;;;;;16.40;12.10;;;;;;;10.51;83.01;98694.55;226061;1278;22564;-75
2023/06/14 04:13:18;;;;;;;16.00;11.90;;;;;;;10.80;82.78;98698.85;226314;1278;24239;-76
2023/06/14 04:18:21;;;;;;;16.50;11.60;;;;;;;11.15;82.64;98703.59;226357;1273;22531;-76
2023/06/14 04:23:28;;;;;;;17.90;12.40;;;;;;;11.48;82.23;98695.25;226233;1273;22544;-76
2023/06/14 04:28:46;;;;;;;16.70;11.60;;;;;;;11.62;81.77;98701.41;226201;1278;22556;-75
2023/06/14 04:33:53;;;;;;;18.70;12.30;;;;;;;11.68;81.59;98698.89;226095;1278;22544;-76
2023/06/14 04:38:58;;;;;;;20.20;13.70;;;;;;;11.79;81.52;98691.50;226260;1273;22572;-75
2023/06/14 04:44:25;;;;;;;17.60;13.30;;;;;;;11.90;81.44;98691.79;226132;1276;22548;-76
2023/06/14 04:49:32;;;;;;;16.50;12.10;;;;;;;11.97;81.40;98694.80;226358;1274;22547;-76
2023/06/14 04:54:54;;;;;;;;;;;;;;;;;;;;;
2023/06/14 04:59:57;;;;;;;15.50;12.10;;;;;;;12.00;81.42;98698.27;226317;1274;22529;-75
2023/06/14 05:05:01;;;;;;;17.30;12.30;;;;;;;12.04;81.46;98703.20;226059;1277;22572;-75
2023/06/14 05:10:20;;;;;;;;;;;;;;;;;;;;;
2023/06/14 05:15:28;;;;;;;17.40;11.80;;;;;;;12.18;81.58;98709.33;226145;1277;22566;-76
2023/06/14 05:20:37;;;;;;;22.60;13.90;;;;;;;12.29;81.43;98706.78;226238;1273;22587;-76
2023/06/14 05:25:40;;;;;;;23.90;13.60;;;;;;;12.50;81.46;98711.10;225973;1254;22559;-75
2023/06/14 05:30:50;;;;;;;21.60;13.60;;;;;;;12.78;81.37;98717.80;225990;1270;22560;-76
2023/06/14 05:35:53;;;;;;;25.80;14.60;;;;;;;13.04;81.14;98727.48;225770;1277;22963;-76
2023/06/14 05:41:10;;;;;;;21.10;13.60;;;;;;;13.27;80.90;98732.77;225932;1275;24222;-76
2023/06/14 05:46:13;;;;;;;24.90;15.60;;;;;;;13.46;80.52;98739.86;226027;1273;22589;-76
2023/06/14 05:51:18;;;;;;;23.30;15.70;;;;;;;13.58;80.42;98740.17;225787;1277;22523;-75
2023/06/14 05:56:21;;;;;;;20.60;13.60;;;;;;;13.60;79.87;98736.29;225831;1257;24220;-76
2023/06/14 06:01:26;;;;;;;17.60;12.80;;;;;;;13.66;79.85;98735.69;225741;1255;24298;-77
2023/06/14 06:06:32;;;;;;;20.30;13.50;;;;;;;13.71;79.51;98733.87;225919;1271;25009;-77
2023/06/14 06:11:34;;;;;;;22.20;14.60;;;;;;;13.70;79.51;98737.55;225450;1270;138833;-75
2023/06/14 06:16:54;;;;;;;17.90;12.80;;;;;;;13.69;79.50;98738.98;225689;1263;141877;-77
2023/06/14 06:21:56;;;;;;;18.30;14.00;;;;;;;13.62;79.57;98740.00;225669;1256;139217;-78
2023/06/14 06:26:59;;;;;;;16.50;11.10;;;;;;;13.66;79.61;98748.05;225877;1276;138442;-77
2023/06/14 06:32:01;;;;;;;17.40;12.00;;;;;;;13.71;79.52;98751.89;225888;1272;138732;-78
2023/06/14 06:37:04;;;;;;;16.80;12.00;;;;;;;13.86;79.68;98751.52;225603;1260;138715;-77
2023/06/14 06:42:07;;;;;;;16.90;12.40;;;;;;;13.99;79.23;98760.70;225676;1275;138783;-77
2023/06/14 06:47:11;;;;;;;17.00;11.80;;;;;;;14.11;79.38;98761.67;225717;1274;22579;-77
2023/06/14 06:52:13;;;;;;;16.70;12.90;;;;;;;14.24;79.22;98758.88;226004;1267;138475;-77
2023/06/14 06:57:15;;;;;;;13.00;10.80;;;;;;;14.36;78.94;98760.79;225517;1275;138787;-77
2023/06/14 07:02:18;;;;;;;15.10;12.50;;;;;;;14.49;78.63;98768.85;225290;1268;138910;-77
2023/06/14 07:07:20;;;;;;;15.90;12.10;;;;;;;14.65;78.51;98770.99;225484;1274;138638;-75
2023/06/14 07:12:23;;;;;;;16.90;13.50;;;;;;;14.78;78.29;98771.37;225542;1278;138698;-74
2023/06/14 07:17:28;;;;;;;16.40;13.40;;;;;;;14.90;77.76;98770.67;226076;1270;22577;-75
2023/06/14 07:22:31;;;;;;;18.20;14.80;;;;;;;15.11;77.79;98770.30;226010;1275;138218;-73
2023/06/14 07:27:37;;;;;;;17.90;14.10;;;;;;;15.21;77.51;98774.84;225442;1267;138584;-74
2023/06/14 07:32:49;;;;;;;17.20;13.50;;;;;;;15.22;77.25;98775.00;224975;1255;138593;-74
2023/06/14 07:37:52;;;;;;;15.10;12.50;;;;;;;15.22;76.90;98779.83;225273;1255;138605;-72
2023/06/14 07:42:56;;;;;;;16.80;11.50;;;;;;;15.40;76.90;98784.19;225124;1257;138706;-74
2023/06/14 07:47:58;;;;;;;15.60;11.80;;;;;;;15.58;76.93;98785.23;225067;1255;138625;-75
2023/06/14 07:53:01;;;;;;;14.70;12.40;;;;;;;15.83;76.47;98789.32;225274;1260;25441;-73
2023/06/14 07:58:11;;;;;;;13.10;10.60;;;;;;;16.10;76.03;98785.85;225367;1263;138357;-74
2023/06/14 08:03:14;;;;;;;13.80;11.20;;;;;;;16.18;75.28;98787.56;225502;1255;138495;-73
2023/06/14 08:08:19;;;;;;;10.60;9.50;;;;;;;16.23;75.24;98789.88;225838;1274;138661;-74
2023/06/14 08:13:21;;;;;;;11.70;9.50;;;;;;;16.19;75.20;98784.30;225779;1264;138510;-75
2023/06/14 08:18:26;;;;;;;11.80;9.40;;;;;;;16.11;74.82;98781.34;225627;1271;138511;-73
2023/06/14 08:23:28;;;;;;;12.10;10.00;;;;;;;16.04;74.82;98780.14;225769;1264;22542;-74
2023/06/14 08:28:30;;;;;;;10.10;9.00;;;;;;;15.86;74.90;98789.73;225837;1271;138056;-74
2023/06/14 08:33:35;;;;;;;12.50;9.10;;;;;;;15.78;75.31;98800.35;225872;1270;138453;-73
2023/06/14 08:38:40;;;;;;;11.30;9.50;;;;;;;15.75;75.09;98803.94;225803;1254;139635;-75
2023/06/14 08:43:43;;;;;;;8.70;7.80;;;;;;;15.92;75.58;98804.09;225583;1267;138407;-72
2023/06/14 08:48:55;;;;;;;12.80;8.20;;;;;;;16.26;75.08;98805.71;225554;1256;138257;-73
2023/06/14 08:54:01;;;;;;;7.50;6.80;;;;;;;16.53;74.63;98804.10;225596;1256;138530;-73
2023/06/14 08:59:09;;;;;;;6.60;6.00;;;;;;;16.61;73.57;98805.23;225829;1271;22542;-74
2023/06/14 09:04:19;;;;;;;7.10;5.80;;;;;;;16.73;73.78;98815.59;225776;1271;138030;-73
2023/06/14 09:09:25;;;;;;;7.50;6.10;;;;;;;16.89;73.40;98819.88;225780;1274;139222;-73
2023/06/14 09:14:38;;;;;;;5.50;5.00;;;;;;;16.88;73.00;98822.33;225710;1276;138809;-75
2023/06/14 09:19:41;;;;;;;4.90;4.40;;;;;;;16.79;72.65;98826.77;226079;1275;138401;-75
2023/06/14 09:24:50;;;;;;;4.80;4.10;;;;;;;16.73;72.43;98822.83;225725;1274;138329;-77
2023/06/14 09:30:22;;;;;;;5.10;3.90;;;;;;;16.88;72.73;98821.08;225619;1278;138271;-77
2023/06/14 09:35:41;;;;;;;4.30;3.80;;;;;;;17.04;72.16;98815.61;225722;1278;22542;-77
2023/06/14 09:40:43;;;;;;;4.20;3.90;;;;;;;17.19;72.01;98819.46;226051;1275;22921;-78
2023/06/14 09:45:48;;;;;;;5.70;5.30;;;;;;;17.47;71.96;98820.20;226065;1274;137991;-78
2023/06/14 09:50:57;;;;;;;7.10;6.50;;;;;;;17.76;71.56;98818.58;226028;1271;138258;-77
2023/06/14 09:56:06;;;;;;;3.80;3.50;;;;;;;18.10;71.46;98818.30;225766;1278;138275;-77
2023/06/14 10:01:13;;;;;;;6.60;6.00;;;;;;;18.50;70.77;98818.65;225759;1271;138299;-75
2023/06/14 10:06:20;;;;;;;7.00;6.30;;;;;;;18.80;69.83;98821.11;225755;1263;138757;-75
2023/06/14 10:11:29;;;;;;;4.20;3.60;;;;;;;19.01;69.63;98821.34;225822;1279;22539;-76
2023/06/14 10:16:42;;;;;;;4.80;4.40;;;;;;;19.02;68.67;98821.77;225899;1272;137544;-76
2023/06/14 10:22:08;;;;;;;5.80;4.30;;;;;;;18.98;68.68;98822.78;225797;1274;137795;-75
2023/06/14 10:27:13;;;;;;;4.10;3.70;;;;;;;19.15;69.15;98815.58;225883;1272;137486;-74
2023/06/14 10:32:18;;;;;;;4.80;4.40;;;;;;;19.21;68.60;98815.30;225809;1274;138288;-76
2023/06/14 10:37:21;;;;;;;4.80;4.20;;;;;;;19.22;68.20;98816.92;225851;1274;138328;-75
2023/06/14 10:42:34;;;;;;;5.50;5.00;;;;;;;19.26;68.12;98816.83;225638;1274;137976;-75
2023/06/14 10:47:38;;;;;;;4.50;4.10;;;;;;;19.43;67.97;98810.19;225940;1271;22946;-75
2023/06/14 10:52:43;;;;;;;4.90;4.50;;;;;;;19.64;67.19;98807.79;225837;1268;137950;-74
2023/06/14 10:57:58;;;;;;;4.50;4.20;;;;;;;19.86;66.82;98804.58;225877;1266;137463;-75
2023/06/14 11:03:58;;;;;;;4.80;4.40;;;;;;;19.93;65.94;98806.12;225642;1274;137584;-75
2023/06/14 11:09:51;;;;;;;6.00;5.50;;;;;;;19.88;65.84;98802.45;224922;1268;137702;-77
2023/06/14 11:14:53;;;;;;;5.90;5.40;;;;;;;20.07;66.21;98802.70;224700;1285;137835;-77
2023/06/14 11:20:46;;;;;;;7.80;5.90;;;;;;;20.09;65.49;98802.20;225599;1274;137568;-76
2023/06/14 11:25:50;;;;;;;8.30;7.40;;;;;;;19.84;65.22;98798.64;225841;1270;137511;-76
2023/06/14 11:31:05;;;;;;;6.10;5.40;;;;;;;19.68;65.35;98797.17;225729;1261;137572;-74
2023/06/14 11:36:08;;;;;;;6.90;5.50;;;;;;;19.49;65.59;98800.21;225693;1277;137575;-76
2023/06/14 11:41:11;;;;;;;7.10;6.30;;;;;;;19.47;65.97;98795.92;226039;1271;22555;-75
2023/06/14 11:46:21;;;;;;;9.50;8.70;;;;;;;19.67;65.91;98787.48;225884;1276;137620;-76
2023/06/14 11:51:25;;;;;;;9.80;8.40;;;;;;;20.02;65.77;98785.64;225898;1256;137524;-77
2023/06/14 11:56:27;;;;;;;9.30;8.50;;;;;;;20.50;65.37;98780.32;225665;1274;137589;-76
2023/06/14 12:01:50;;;;;;;9.40;8.60;;;;;;;20.84;64.30;98777.55;225758;1272;137652;-76
2023/06/14 12:07:17;;;;;;;10.40;9.50;;;;;;;21.18;63.80;98773.95;225908;1272;137647;-76
2023/06/14 12:12:27;;;;;;;10.80;9.90;;;;;;;21.66;63.52;98769.83;225944;1271;137714;-76
2023/06/14 12:17:36;;;;;;;9.30;7.10;;;;;;;21.81;62.67;98772.12;225999;1271;22556;-77
2023/06/14 12:22:54;;;;;;;8.00;7.10;;;;;;;21.53;62.26;98770.61;225833;1275;137376;-77
2023/06/14 12:28:03;;;;;;;7.60;6.90;;;;;;;21.35;62.58;98765.70;225605;1276;137524;-76
2023/06/14 12:33:09;;;;;;;7.70;7.00;;;;;;;21.31;62.04;98759.70;225590;1270;137604;-75
2023/06/14 12:38:16;;;;;;;7.70;7.00;;;;;;;21.37;62.20;98757.17;225841;1274;137726;-76
2023/06/14 12:43:18;;;;;;;7.20;6.60;;;;;;;21.57;62.03;98751.61;225825;1274;137623;-77
2023/06/14 12:48:27;;;;;;;7.40;6.70;;;;;;;21.81;61.39;98747.16;225853;1274;137559;-77
2023/06/14 12:53:29;;;;;;;5.70;5.20;;;;;;;22.00;60.66;98745.21;225987;1274;22592;-77
2023/06/14 12:58:37;;;;;;;7.50;6.80;;;;;;;22.10;60.24;98738.45;225832;1278;136691;-75
2023/06/14 13:03:40;;;;;;;7.30;6.70;;;;;;;22.11;60.36;98741.89;225786;1261;137388;-76
2023/06/14 13:08:43;;;;;;;6.50;6.00;;;;;;;22.05;59.86;98739.08;225665;1271;137523;-76
2023/06/14 13:13:52;;;;;;;5.90;5.40;;;;;;;21.97;59.74;98742.30;225537;1270;138325;-76
2023/06/14 13:18:58;;;;;;;6.90;5.60;;;;;;;21.71;59.99;98743.67;225736;1274;137579;-76
2023/06/14 13:24:00;;;;;;;5.70;5.10;;;;;;;21.49;60.49;98743.87;225919;1261;137710;-76
2023/06/14 13:29:06;;;;;;;5.30;4.80;;;;;;;21.51;60.22;98746.98;225899;1260;22694;-75
2023/06/14 13:34:10;;;;;;;7.10;4.90;;;;;;;21.37;60.35;98744.54;225676;1275;137285;-75
2023/06/14 13:39:12;;;;;;;5.00;4.40;;;;;;;21.25;59.93;98740.15;225636;1271;137734;-76
2023/06/14 13:44:18;;;;;;;4.90;4.50;;;;;;;21.02;59.92;98739.73;225829;1271;137603;-76
2023/06/14 13:49:20;;;;;;;5.20;4.70;;;;;;;20.81;60.16;98731.23;225777;1259;137656;-76
2023/06/14 13:54:22;;;;;;;5.90;4.40;;;;;;;20.67;60.47;98731.80;225634;1271;137568;-76
2023/06/14 13:59:27;;;;;;;6.10;4.80;;;;;;;20.59;60.55;98730.33;225808;1260;24769;-75
2023/06/14 14:04:33;;;;;;;5.70;4.70;;;;;;;20.47;60.20;98733.38;225656;1271;137305;-75
2023/06/14 14:09:39;;;;;;;5.90;4.60;;;;;;;20.44;60.80;98733.14;226292;1277;22541;-75
2023/06/14 14:14:42;;;;;;;5.20;4.60;;;;;;;20.40;60.47;98738.09;226402;1275;22543;-75
2023/06/14 14:19:44;;;;;;;4.40;4.00;;;;;;;20.41;60.93;98741.86;226409;1275;22536;-75
2023/06/14 14:24:47;;;;;;;5.20;4.70;;;;;;;20.38;60.73;98745.59;226197;1277;24423;-75
2023/06/14 14:29:51;;;;;;;4.60;4.20;;;;;;;20.17;60.83;98745.69;226446;1277;25926;-75
2023/06/14 14:34:57;;;;;;;4.50;3.80;;;;;;;20.00;61.57;98746.83;226454;1277;22533;-76
2023/06/14 14:40:04;;;;;;;5.00;4.40;;;;;;;19.87;61.78;98748.64;226481;1277;23514;-75
2023/06/14 14:45:09;;;;;;;5.10;4.70;;;;;;;19.78;62.48;98741.92;226475;1270;22561;-75
2023/06/14 14:50:16;;;;;;;5.80;5.00;;;;;;;19.69;62.91;98743.21;226429;1273;22533;-75
2023/06/14 14:55:19;;;;;;;5.30;4.80;;;;;;;19.67;63.56;98736.86;226153;1275;22541;-76
2023/06/14 15:00:27;;;;;;;5.40;4.90;;;;;;;19.67;63.74;98729.46;226485;1275;22546;-76
2023/06/14 15:05:38;;;;;;;6.30;5.20;;;;;;;19.70;63.86;98732.13;226522;1275;22540;-76
2023/06/14 15:10:41;;;;;;;4.80;4.40;;;;;;;19.71;64.01;98731.44;226541;1275;22544;-75
2023/06/14 15:15:43;;;;;;;4.30;3.90;;;;;;;19.98;64.55;98728.82;226418;1275;25411;-76
2023/06/14 15:20:49;;;;;;;5.20;3.40;;;;;;;20.29;63.86;98721.15;226470;1275;22554;-75
2023/06/14 15:25:55;;;;;;;3.50;3.20;;;;;;;20.46;63.13;98720.86;226462;1277;22556;-76
2023/06/14 15:30:58;;;;;;;3.50;3.20;;;;;;;20.69;62.64;98716.99;226437;1277;22544;-76
2023/06/14 15:36:00;;;;;;;4.60;3.30;;;;;;;20.87;61.89;98716.77;226382;1275;24256;-76
2023/06/14 15:41:03;;;;;;;3.60;3.30;;;;;;;20.87;61.29;98712.64;226397;1269;22529;-76
2023/06/14 15:46:05;;;;;;;3.50;3.20;;;;;;;20.90;61.30;98709.23;226401;1275;22540;-76
2023/06/14 15:51:17;;;;;;;3.60;3.00;;;;;;;20.86;61.06;98710.39;226437;1277;22560;-74
2023/06/14 15:56:22;;;;;;;4.00;3.00;;;;;;;20.83;60.88;98715.61;226415;1275;22533;-75
2023/06/14 16:01:41;;;;;;;4.10;3.70;;;;;;;20.62;60.39;98717.85;226455;1270;22639;-75
2023/06/14 16:06:52;;;;;;;4.20;3.50;;;;;;;20.36;60.84;98723.70;226342;1254;22533;-74
2023/06/14 16:11:58;;;;;;;4.10;3.40;;;;;;;20.24;61.55;98724.40;226488;1276;22534;-75
2023/06/14 16:17:01;;;;;;;3.60;3.30;;;;;;;20.07;61.60;98721.27;226370;1273;22580;-75
2023/06/14 16:22:04;;;;;;;3.30;3.00;;;;;;;19.92;61.80;98724.94;226465;1275;22553;-75
2023/06/14 16:27:10;;;;;;;3.30;2.50;;;;;;;19.80;61.64;98719.17;226367;1277;22548;-74
2023/06/14 16:32:20;;;;;;;3.10;2.50;;;;;;;19.74;61.61;98722.15;226375;1277;25343;-74
2023/06/14 16:37:25;;;;;;;2.60;2.40;;;;;;;19.69;61.27;98727.39;226410;1276;22536;-75
2023/06/14 16:42:33;;;;;;;3.00;2.70;;;;;;;19.67;61.62;98732.57;226357;1277;25162;-76
2023/06/14 16:47:41;;;;;;;3.20;2.50;;;;;;;19.69;61.65;98747.77;226407;1278;22532;-76
2023/06/14 16:52:43;;;;;;;3.30;3.00;;;;;;;19.73;61.45;98750.30;226362;1277;22561;-76
2023/06/14 16:57:53;;;;;;;2.90;2.70;;;;;;;19.67;61.08;98754.07;226448;1276;22577;-75
2023/06/14 17:02:55;;;;;;;3.70;3.00;;;;;;;19.48;61.09;98747.66;226495;1276;22533;-75
2023/06/14 17:08:01;;;;;;;3.50;3.20;;;;;;;19.25;61.59;98755.35;226445;1269;22544;-75
2023/06/14 17:13:12;;;;;;;4.20;3.20;;;;;;;19.05;61.91;98761.84;226481;1275;22553;-75
2023/06/14 17:18:14;;;;;;;4.30;3.90;;;;;;;18.77;62.25;98768.91;226480;1276;22511;-74
2023/06/14 17:23:17;;;;;;;4.20;3.80;;;;;;;18.47;62.65;98772.49;226449;1277;22627;-74
2023/06/14 17:28:19;;;;;;;6.70;6.00;;;;;;;18.11;63.55;98785.29;226346;1269;22545;-74
2023/06/14 17:33:21;;;;;;;6.90;5.90;;;;;;;17.76;64.26;98783.58;226304;1272;25507;-74
2023/06/14 17:38:26;;;;;;;7.50;6.00;;;;;;;17.46;65.02;98790.83;226539;1275;22542;-74
2023/06/14 17:43:28;;;;;;;6.70;6.00;;;;;;;17.19;65.55;98795.27;226411;1275;22533;-75
2023/06/14 17:48:33;;;;;;;7.40;6.40;;;;;;;16.99;66.40;98798.72;226436;1278;22560;-74
2023/06/14 17:53:35;;;;;;;7.10;6.30;;;;;;;16.80;66.87;98802.40;226403;1275;22543;-74
2023/06/14 17:58:37;;;;;;;6.20;5.20;;;;;;;16.64;67.14;98808.31;226339;1275;22576;-74
2023/06/14 18:03:47;;;;;;;5.90;5.40;;;;;;;16.50;67.61;98801.46;226392;1275;22536;-75
2023/06/14 18:08:50;;;;;;;;;;;;;;;16.37;67.77;98806.92;226401;1277;23596;-74
2023/06/14 18:13:53;;;;;;;6.40;5.80;;;;;;;16.22;67.76;98813.10;226439;1273;22546;-74
2023/06/14 18:18:55;;;;;;;8.10;5.40;;;;;;;16.07;68.05;98815.54;226409;1277;155462;-74
2023/06/14 18:23:57;;;;;;;9.50;5.90;;;;;;;15.94;68.39;98823.42;226461;1275;22540;-75
2023/06/14 18:29:01;;;;;;;7.60;5.40;;;;;;;15.80;68.93;98819.14;226438;1275;22547;-75
2023/06/14 18:34:02;;;;;;;8.20;6.20;;;;;;;15.66;69.46;98821.42;226453;1277;22581;-74
2023/06/14 18:39:06;;;;;;;11.00;7.10;;;;;;;15.50;70.18;98816.54;226467;1277;22552;-75
2023/06/14 18:44:08;;;;;;;8.70;6.90;;;;;;;15.36;70.68;98817.72;226462;1276;22560;-75
2023/06/14 18:49:14;;;;;;;9.20;7.10;;;;;;;15.23;71.06;98815.33;226469;1275;22528;-75
2023/06/14 18:54:17;;;;;;;7.80;7.00;;;;;;;15.10;71.54;98819.31;226492;1277;22559;-75
2023/06/14 18:59:20;;;;;;;9.60;7.00;;;;;;;14.97;71.85;98824.11;226472;1275;23018;-74
2023/06/14 19:04:31;;;;;;;8.10;7.00;;;;;;;14.83;72.24;98830.38;226503;1277;22533;-74
2023/06/14 19:09:33;;;;;;;8.80;6.40;;;;;;;14.68;72.83;98834.43;226452;1275;22561;-75
2023/06/14 19:14:35;;;;;;;8.00;7.20;;;;;;;14.54;73.16;98839.22;226316;1278;22544;-74
2023/06/14 19:19:39;;;;;;;8.50;7.40;;;;;;;14.41;73.41;98842.61;226507;1275;22564;-75
2023/06/14 19:24:43;;;;;;;10.00;7.10;;;;;;;14.27;73.91;98844.17;226394;1276;23284;-75
2023/06/14 19:29:46;;;;;;;13.10;7.50;;;;;;;14.17;74.19;98853.77;226374;1277;22549;-74
2023/06/14 19:34:48;;;;;;;7.60;6.30;;;;;;;14.08;74.64;98853.09;226436;1275;23695;-75
2023/06/14 19:39:50;;;;;;;9.70;6.80;;;;;;;14.00;74.87;98852.24;226432;1275;25245;-74
2023/06/14 19:44:54;;;;;;;7.20;6.40;;;;;;;13.90;75.20;98850.69;226427;1275;22554;-74
2023/06/14 19:49:57;;;;;;;7.40;6.70;;;;;;;13.80;75.35;98851.02;226444;1277;22572;-74
2023/06/14 19:55:00;;;;;;;11.80;10.60;;;;;;;13.68;75.82;98857.13;226309;1273;22677;-74
2023/06/14 20:00:08;;;;;;;11.20;9.80;;;;;;;13.58;76.26;98859.91;226448;1275;22586;-74
2023/06/14 20:05:13;;;;;;;10.00;8.20;;;;;;;13.49;76.72;98859.80;226471;1276;22537;-74
2023/06/14 20:10:16;;;;;;;11.10;8.40;;;;;;;13.41;77.04;98855.90;226411;1277;22602;-74
2023/06/14 20:15:21;;;;;;;9.20;8.20;;;;;;;13.34;77.08;98862.27;226467;1273;22609;-73
2023/06/14 20:20:23;;;;;;;9.50;8.40;;;;;;;13.26;77.55;98862.52;226478;1276;22536;-75
2023/06/14 20:25:26;;;;;;;11.10;9.30;;;;;;;13.20;78.01;98859.33;226398;1276;22580;-75
2023/06/14 20:30:31;;;;;;;11.40;9.50;;;;;;;13.14;78.20;98862.61;226401;1278;22558;-75
2023/06/14 20:35:34;;;;;;;12.90;9.90;;;;;;;13.06;78.42;98864.59;226440;1275;25239;-74
2023/06/14 20:40:38;;;;;;;11.70;9.90;;;;;;;12.97;78.57;98865.34;226393;1275;22541;-74
2023/06/14 20:45:46;;;;;;;12.20;9.90;;;;;;;12.90;78.86;98868.07;226331;1276;22561;-74
2023/06/14 20:50:48;;;;;;;13.00;10.20;;;;;;;12.85;79.02;98865.45;226455;1276;22564;-74
2023/06/14 20:55:54;;;;;;;10.40;9.40;;;;;;;12.78;79.17;98864.94;226414;1276;22574;-77
2023/06/14 21:00:56;;;;;;;10.90;9.80;;;;;;;12.71;79.37;98862.79;226416;1276;22534;-74
2023/06/14 21:05:59;;;;;;;10.20;9.20;;;;;;;12.63;79.54;98866.36;226539;1278;22531;-75
2023/06/14 21:11:04;;;;;;;10.70;9.60;;;;;;;12.52;79.71;98869.33;226559;1278;22579;-74
2023/06/14 21:16:08;;;;;;;10.40;9.30;;;;;;;12.44;80.06;98873.96;226499;1278;22605;-74
2023/06/14 21:21:10;;;;;;;10.80;9.60;;;;;;;12.36;80.08;98876.44;226372;1276;24280;-74
2023/06/14 21:26:13;;;;;;;11.10;9.90;;;;;;;12.26;80.34;98875.70;226438;1278;25398;-74
2023/06/14 21:31:18;;;;;;;10.20;9.20;;;;;;;12.18;80.47;98875.30;226460;1274;22597;-74
2023/06/14 21:36:22;;;;;;;12.70;11.10;;;;;;;12.11;80.72;98877.17;226482;1278;22577;-75
2023/06/14 21:41:31;;;;;;;13.60;10.80;;;;;;;12.04;80.91;98880.30;226462;1276;22537;-75
2023/06/14 21:46:34;;;;;;;13.50;9.80;;;;;;;11.97;81.03;98879.02;226435;1277;22534;-75
2023/06/14 21:51:38;;;;;;;11.40;9.70;;;;;;;11.91;81.53;98879.28;226467;1278;22562;-75
2023/06/14 21:56:46;;;;;;;10.50;9.50;;;;;;;11.84;81.41;98882.87;226486;1277;22525;-75
2023/06/14 22:01:52;;;;;;;11.00;9.20;;;;;;;11.77;81.52;98878.12;226525;1278;22530;-74
2023/06/14 22:06:56;;;;;;;10.50;9.30;;;;;;;11.71;81.81;98875.30;226466;1273;22533;-74
2023/06/14 22:12:01;;;;;;;12.70;11.20;;;;;;;11.63;81.86;98874.54;226464;1274;22546;-74
2023/06/14 22:17:08;;;;;;;12.40;11.10;;;;;;;11.57;82.05;98873.39;226328;1276;24176;-74
2023/06/14 22:22:11;;;;;;;14.10;12.60;;;;;;;11.55;82.20;98872.25;226483;1277;22544;-74
2023/06/14 22:27:13;;;;;;;13.60;12.00;;;;;;;11.54;82.45;98867.19;226459;1277;22547;-74
2023/06/14 22:32:19;;;;;;;10.90;9.80;;;;;;;11.55;82.40;98863.34;226426;1277;22547;-74
2023/06/14 22:37:23;;;;;;;11.90;10.70;;;;;;;11.56;82.55;98859.73;226527;1278;22546;-74
2023/06/14 22:42:34;;;;;;;11.50;10.20;;;;;;;11.58;82.67;98862.13;226440;1273;22536;-74
2023/06/14 22:47:51;;;;;;;11.50;10.20;;;;;;;11.62;82.84;98862.48;226444;1276;22545;-74
2023/06/14 22:53:21;;;;;;;12.50;11.20;;;;;;;11.66;82.85;98864.76;226397;1277;22528;-75
2023/06/14 22:58:27;;;;;;;11.60;10.40;;;;;;;11.69;82.92;98868.36;226499;1273;22545;-75
2023/06/14 23:03:30;;;;;;;12.80;11.60;;;;;;;11.69;82.98;98859.60;226499;1273;25373;-73
2023/06/14 23:08:49;;;;;;;12.60;11.30;;;;;;;11.69;83.16;98860.05;226481;1277;24262;-74
2023/06/14 23:13:58;;;;;;;13.90;11.70;;;;;;;11.71;83.18;98858.98;226456;1267;22552;-75
2023/06/14 23:19:00;;;;;;;12.60;11.40;;;;;;;11.73;83.31;98854.93;226474;1271;22545;-75
2023/06/14 23:24:03;;;;;;;11.80;10.60;;;;;;;11.74;83.41;98855.16;226337;1278;22535;-74
2023/06/14 23:29:05;;;;;;;12.00;10.80;;;;;;;11.75;83.55;98852.91;226466;1273;22484;-74
2023/06/14 23:34:28;;;;;;;12.30;11.00;;;;;;;11.75;83.47;98854.34;226450;1277;25401;-75
2023/06/14 23:39:48;;;;;;;13.00;11.80;;;;;;;11.74;83.56;98850.71;226449;1275;24273;-74